sensor_id;sensor_type;location;lat;lon;timestamp;P1;P2;P0
72854;PMS7003;60991;51.278;22.550;2023-07-30T00:00:45;9.75;9.75;7.00
72854;PMS7003;60991;51.278;22.550;2023-07-30T00:02:15;11.25;10.25;7.75
72854;PMS7003;60991;51.278;22.550;2023-07-30T00:03:46;9.75;9.00;7.00
72854;PMS7003;60991;51.278;22.550;2023-07-30T00:05:16;8.50;7.50;6.00
72854;PMS7003;60991;51.278;22.550;2023-07-30T00:06:46;11.00;10.25;6.25
72854;PMS7003;60991;51.278;22.550;2023-07-30T00:08:17;11.00;10.00;7.75
72854;PMS7003;60991;51.278;22.550;2023-07-30T00:09:47;8.75;8.75;7.75
72854;PMS7003;60991;51.278;22.550;2023-07-30T00:11:17;9.00;9.00;6.25
72854;PMS7003;60991;51.278;22.550;2023-07-30T00:12:47;12.25;10.00;6.00
72854;PMS7003;60991;51.278;22.550;2023-07-30T00:14:18;8.00;8.00;7.25
72854;PMS7003;60991;51.278;22.550;2023-07-30T00:15:48;6.75;6.75;5.25
72854;PMS7003;60991;51.278;22.550;2023-07-30T00:17:18;10.00;10.00;7.00
72854;PMS7003;60991;51.278;22.550;2023-07-30T00:18:48;9.75;9.75;7.50
72854;PMS7003;60991;51.278;22.550;2023-07-30T00:20:19;9.75;7.25;6.00
72854;PMS7003;60991;51.278;22.550;2023-07-30T00:21:49;13.00;9.50;6.75
72854;PMS7003;60991;51.278;22.550;2023-07-30T00:23:19;8.00;8.00;6.00
72854;PMS7003;60991;51.278;22.550;2023-07-30T00:24:49;9.25;8.75;7.00
72854;PMS7003;60991;51.278;22.550;2023-07-30T00:26:19;9.25;9.25;8.00
72854;PMS7003;60991;51.278;22.550;2023-07-30T00:27:50;10.25;9.25;7.50
72854;PMS7003;60991;51.278;22.550;2023-07-30T00:29:20;10.00;10.00;7.00
72854;PMS7003;60991;51.278;22.550;2023-07-30T00:30:50;10.25;9.00;7.00
72854;PMS7003;60991;51.278;22.550;2023-07-30T00:32:20;8.00;8.00;6.50
72854;PMS7003;60991;51.278;22.550;2023-07-30T00:33:50;9.00;9.00;7.00
72854;PMS7003;60991;51.278;22.550;2023-07-30T00:35:21;10.00;9.50;6.00
72854;PMS7003;60991;51.278;22.550;2023-07-30T00:36:51;9.50;8.75;6.50
72854;PMS7003;60991;51.278;22.550;2023-07-30T00:38:21;9.25;8.00;6.00
72854;PMS7003;60991;51.278;22.550;2023-07-30T00:39:51;8.75;8.75;7.75
72854;PMS7003;60991;51.278;22.550;2023-07-30T00:41:22;9.25;8.25;6.50
72854;PMS7003;60991;51.278;22.550;2023-07-30T00:42:52;8.00;8.00;6.00
72854;PMS7003;60991;51.278;22.550;2023-07-30T00:44:22;12.00;10.50;7.25
72854;PMS7003;60991;51.278;22.550;2023-07-30T00:45:52;12.00;9.75;7.00
72854;PMS7003;60991;51.278;22.550;2023-07-30T00:47:22;8.50;8.50;7.00
72854;PMS7003;60991;51.278;22.550;2023-07-30T00:48:53;10.75;10.75;7.75
72854;PMS7003;60991;51.278;22.550;2023-07-30T00:50:23;10.75;9.50;7.25
72854;PMS7003;60991;51.278;22.550;2023-07-30T00:51:54;10.00;10.00;7.25
72854;PMS7003;60991;51.278;22.550;2023-07-30T00:53:24;11.00;11.00;8.00
72854;PMS7003;60991;51.278;22.550;2023-07-30T00:54:56;9.00;9.00;6.00
72854;PMS7003;60991;51.278;22.550;2023-07-30T00:56:28;11.00;10.25;8.25
72854;PMS7003;60991;51.278;22.550;2023-07-30T00:57:59;12.50;11.50;7.25
72854;PMS7003;60991;51.278;22.550;2023-07-30T00:59:30;11.25;10.25;6.25
72854;PMS7003;60991;51.278;22.550;2023-07-30T01:01:00;12.00;9.00;7.50
72854;PMS7003;60991;51.278;22.550;2023-07-30T01:02:31;9.00;9.00;7.25
72854;PMS7003;60991;51.278;22.550;2023-07-30T01:04:01;8.00;8.00;6.25
72854;PMS7003;60991;51.278;22.550;2023-07-30T01:05:32;8.50;8.50;6.50
72854;PMS7003;60991;51.278;22.550;2023-07-30T01:07:03;10.00;10.00;8.00
72854;PMS7003;60991;51.278;22.550;2023-07-30T01:08:34;13.50;10.50;7.25
72854;PMS7003;60991;51.278;22.550;2023-07-30T01:10:04;9.00;9.00;6.25
72854;PMS7003;60991;51.278;22.550;2023-07-30T01:11:35;8.50;8.50;6.25
72854;PMS7003;60991;51.278;22.550;2023-07-30T01:13:07;8.00;8.00;6.00
72854;PMS7003;60991;51.278;22.550;2023-07-30T01:14:39;13.50;11.25;8.50
72854;PMS7003;60991;51.278;22.550;2023-07-30T01:16:10;12.00;11.00;8.00
72854;PMS7003;60991;51.278;22.550;2023-07-30T01:17:41;9.50;9.25;5.75
72854;PMS7003;60991;51.278;22.550;2023-07-30T01:19:11;9.00;8.75;6.75
72854;PMS7003;60991;51.278;22.550;2023-07-30T01:20:41;11.75;10.75;7.50
72854;PMS7003;60991;51.278;22.550;2023-07-30T01:22:11;10.25;10.25;8.00
72854;PMS7003;60991;51.278;22.550;2023-07-30T01:23:42;8.00;7.75;6.25
72854;PMS7003;60991;51.278;22.550;2023-07-30T01:25:12;14.50;11.00;6.75
72854;PMS7003;60991;51.278;22.550;2023-07-30T01:26:43;10.50;9.00;7.00
72854;PMS7003;60991;51.278;22.550;2023-07-30T01:28:15;4.00;4.00;2.25
72854;PMS7003;60991;51.278;22.550;2023-07-30T01:29:49;10.75;9.75;8.75
72854;PMS7003;60991;51.278;22.550;2023-07-30T01:31:21;12.25;10.50;8.00
72854;PMS7003;60991;51.278;22.550;2023-07-30T01:32:54;8.00;8.00;7.00
72854;PMS7003;60991;51.278;22.550;2023-07-30T01:34:27;10.00;10.00;7.25
72854;PMS7003;60991;51.278;22.550;2023-07-30T01:35:57;9.50;8.25;6.25
72854;PMS7003;60991;51.278;22.550;2023-07-30T01:37:29;10.00;9.50;6.75
72854;PMS7003;60991;51.278;22.550;2023-07-30T01:38:59;9.50;8.00;6.75
72854;PMS7003;60991;51.278;22.550;2023-07-30T01:40:31;9.25;9.25;6.50
72854;PMS7003;60991;51.278;22.550;2023-07-30T01:42:02;10.00;9.25;7.25
72854;PMS7003;60991;51.278;22.550;2023-07-30T01:43:33;11.50;10.00;7.75
72854;PMS7003;60991;51.278;22.550;2023-07-30T01:45:03;9.75;9.75;7.25
72854;PMS7003;60991;51.278;22.550;2023-07-30T01:46:35;9.25;9.25;8.00
72854;PMS7003;60991;51.278;22.550;2023-07-30T01:48:05;10.75;10.75;7.00
72854;PMS7003;60991;51.278;22.550;2023-07-30T01:49:35;7.75;7.75;6.75
72854;PMS7003;60991;51.278;22.550;2023-07-30T01:51:05;10.50;10.50;8.75
72854;PMS7003;60991;51.278;22.550;2023-07-30T01:52:35;10.25;10.25;7.00
72854;PMS7003;60991;51.278;22.550;2023-07-30T01:54:06;9.75;9.75;6.25
72854;PMS7003;60991;51.278;22.550;2023-07-30T01:55:36;10.00;8.50;7.00
72854;PMS7003;60991;51.278;22.550;2023-07-30T01:57:06;8.50;7.50;6.00
72854;PMS7003;60991;51.278;22.550;2023-07-30T01:58:36;9.00;9.00;8.00
72854;PMS7003;60991;51.278;22.550;2023-07-30T02:00:06;6.50;5.75;4.75
72854;PMS7003;60991;51.278;22.550;2023-07-30T02:01:37;9.50;8.50;7.50
72854;PMS7003;60991;51.278;22.550;2023-07-30T02:03:07;9.75;9.50;6.00
72854;PMS7003;60991;51.278;22.550;2023-07-30T02:04:37;12.25;10.75;6.50
72854;PMS7003;60991;51.278;22.550;2023-07-30T02:06:08;11.00;10.50;7.25
72854;PMS7003;60991;51.278;22.550;2023-07-30T02:07:38;7.00;7.00;5.75
72854;PMS7003;60991;51.278;22.550;2023-07-30T02:09:08;7.25;6.50;4.75
72854;PMS7003;60991;51.278;22.550;2023-07-30T02:10:38;8.00;8.00;5.00
72854;PMS7003;60991;51.278;22.550;2023-07-30T02:12:08;10.25;8.75;7.50
72854;PMS7003;60991;51.278;22.550;2023-07-30T02:13:39;6.25;6.00;4.25
72854;PMS7003;60991;51.278;22.550;2023-07-30T02:15:09;10.00;10.00;7.50
72854;PMS7003;60991;51.278;22.550;2023-07-30T02:16:39;7.75;7.75;6.75
72854;PMS7003;60991;51.278;22.550;2023-07-30T02:18:09;8.75;8.25;7.00
72854;PMS7003;60991;51.278;22.550;2023-07-30T02:19:40;9.00;9.00;6.25
72854;PMS7003;60991;51.278;22.550;2023-07-30T02:21:11;9.50;9.00;6.75
72854;PMS7003;60991;51.278;22.550;2023-07-30T02:22:41;9.00;8.25;5.00
72854;PMS7003;60991;51.278;22.550;2023-07-30T02:24:12;9.50;9.50;7.75
72854;PMS7003;60991;51.278;22.550;2023-07-30T02:25:42;7.50;7.00;5.25
72854;PMS7003;60991;51.278;22.550;2023-07-30T02:27:12;9.25;9.25;7.00
72854;PMS7003;60991;51.278;22.550;2023-07-30T02:28:42;9.00;7.50;5.00
72854;PMS7003;60991;51.278;22.550;2023-07-30T02:30:12;7.25;7.25;5.00
72854;PMS7003;60991;51.278;22.550;2023-07-30T02:31:43;10.00;8.00;6.00
72854;PMS7003;60991;51.278;22.550;2023-07-30T02:33:13;10.25;7.75;6.00
72854;PMS7003;60991;51.278;22.550;2023-07-30T02:34:43;9.25;7.25;6.00
72854;PMS7003;60991;51.278;22.550;2023-07-30T02:36:13;8.75;8.75;6.75
72854;PMS7003;60991;51.278;22.550;2023-07-30T02:37:43;7.50;7.25;5.50
72854;PMS7003;60991;51.278;22.550;2023-07-30T02:39:14;8.25;8.25;4.25
72854;PMS7003;60991;51.278;22.550;2023-07-30T02:40:44;8.00;8.00;7.00
72854;PMS7003;60991;51.278;22.550;2023-07-30T02:42:14;12.75;9.00;7.00
72854;PMS7003;60991;51.278;22.550;2023-07-30T02:43:44;9.75;7.50;5.50
72854;PMS7003;60991;51.278;22.550;2023-07-30T02:45:14;8.75;8.00;6.50
72854;PMS7003;60991;51.278;22.550;2023-07-30T02:46:45;8.50;7.50;5.50
72854;PMS7003;60991;51.278;22.550;2023-07-30T02:48:15;7.75;7.75;6.75
72854;PMS7003;60991;51.278;22.550;2023-07-30T02:49:45;8.25;8.25;5.50
72854;PMS7003;60991;51.278;22.550;2023-07-30T02:51:15;8.25;7.25;6.00
72854;PMS7003;60991;51.278;22.550;2023-07-30T02:52:45;8.50;6.75;5.00
72854;PMS7003;60991;51.278;22.550;2023-07-30T02:54:16;10.50;8.50;7.00
72854;PMS7003;60991;51.278;22.550;2023-07-30T02:55:46;7.75;7.75;6.00
72854;PMS7003;60991;51.278;22.550;2023-07-30T02:57:16;7.00;7.00;6.00
72854;PMS7003;60991;51.278;22.550;2023-07-30T02:58:47;8.00;6.75;5.00
72854;PMS7003;60991;51.278;22.550;2023-07-30T03:00:17;9.75;9.50;6.75
72854;PMS7003;60991;51.278;22.550;2023-07-30T03:01:47;7.75;6.50;5.00
72854;PMS7003;60991;51.278;22.550;2023-07-30T03:03:17;8.50;8.50;4.75
72854;PMS7003;60991;51.278;22.550;2023-07-30T03:04:48;5.75;5.75;5.00
72854;PMS7003;60991;51.278;22.550;2023-07-30T03:06:18;8.25;8.00;6.75
72854;PMS7003;60991;51.278;22.550;2023-07-30T03:07:48;8.50;8.25;6.50
72854;PMS7003;60991;51.278;22.550;2023-07-30T03:09:18;7.00;6.75;4.75
72854;PMS7003;60991;51.278;22.550;2023-07-30T03:10:48;7.75;6.25;4.50
72854;PMS7003;60991;51.278;22.550;2023-07-30T03:12:19;7.25;7.25;5.75
72854;PMS7003;60991;51.278;22.550;2023-07-30T03:13:49;8.75;6.25;5.25
72854;PMS7003;60991;51.278;22.550;2023-07-30T03:15:19;5.75;5.75;4.75
72854;PMS7003;60991;51.278;22.550;2023-07-30T03:16:49;5.50;5.50;4.00
72854;PMS7003;60991;51.278;22.550;2023-07-30T03:18:19;4.25;3.25;2.50
72854;PMS7003;60991;51.278;22.550;2023-07-30T03:19:50;8.25;7.25;4.25
72854;PMS7003;60991;51.278;22.550;2023-07-30T03:21:20;6.50;6.50;4.25
72854;PMS7003;60991;51.278;22.550;2023-07-30T03:22:50;5.50;5.50;4.00
72854;PMS7003;60991;51.278;22.550;2023-07-30T03:24:20;4.50;4.50;4.00
72854;PMS7003;60991;51.278;22.550;2023-07-30T03:25:50;6.50;6.50;5.25
72854;PMS7003;60991;51.278;22.550;2023-07-30T03:27:21;6.00;6.00;4.50
72854;PMS7003;60991;51.278;22.550;2023-07-30T03:28:51;4.00;4.00;3.00
72854;PMS7003;60991;51.278;22.550;2023-07-30T03:30:21;8.25;5.50;4.75
72854;PMS7003;60991;51.278;22.550;2023-07-30T03:31:51;6.00;5.00;3.50
72854;PMS7003;60991;51.278;22.550;2023-07-30T03:33:21;7.75;7.75;5.75
72854;PMS7003;60991;51.278;22.550;2023-07-30T03:34:52;4.50;4.50;3.75
72854;PMS7003;60991;51.278;22.550;2023-07-30T03:36:22;7.00;5.75;4.00
72854;PMS7003;60991;51.278;22.550;2023-07-30T03:37:52;5.50;4.75;4.25
72854;PMS7003;60991;51.278;22.550;2023-07-30T03:39:22;6.75;6.75;4.25
72854;PMS7003;60991;51.278;22.550;2023-07-30T03:40:52;4.00;4.00;3.75
72854;PMS7003;60991;51.278;22.550;2023-07-30T03:42:23;4.00;4.00;3.50
72854;PMS7003;60991;51.278;22.550;2023-07-30T03:43:53;5.50;4.75;3.50
72854;PMS7003;60991;51.278;22.550;2023-07-30T03:45:23;6.75;6.75;4.00
72854;PMS7003;60991;51.278;22.550;2023-07-30T03:46:53;4.25;4.25;3.75
72854;PMS7003;60991;51.278;22.550;2023-07-30T03:48:23;5.50;5.50;4.50
72854;PMS7003;60991;51.278;22.550;2023-07-30T03:49:54;4.25;4.00;3.00
72854;PMS7003;60991;51.278;22.550;2023-07-30T03:51:24;6.75;4.75;3.50
72854;PMS7003;60991;51.278;22.550;2023-07-30T03:52:54;7.50;6.00;4.00
72854;PMS7003;60991;51.278;22.550;2023-07-30T03:54:24;4.00;4.00;3.50
72854;PMS7003;60991;51.278;22.550;2023-07-30T03:55:54;4.50;4.25;3.00
72854;PMS7003;60991;51.278;22.550;2023-07-30T03:57:25;6.50;5.00;3.75
72854;PMS7003;60991;51.278;22.550;2023-07-30T03:58:55;7.50;5.75;4.00
72854;PMS7003;60991;51.278;22.550;2023-07-30T04:00:25;7.50;7.50;5.25
72854;PMS7003;60991;51.278;22.550;2023-07-30T04:01:55;4.75;4.00;3.75
72854;PMS7003;60991;51.278;22.550;2023-07-30T04:03:26;6.75;6.25;4.75
72854;PMS7003;60991;51.278;22.550;2023-07-30T04:04:56;3.75;2.75;2.50
72854;PMS7003;60991;51.278;22.550;2023-07-30T04:06:26;6.25;4.75;3.75
72854;PMS7003;60991;51.278;22.550;2023-07-30T04:07:56;4.00;4.00;3.25
72854;PMS7003;60991;51.278;22.550;2023-07-30T04:09:26;4.75;4.75;2.75
72854;PMS7003;60991;51.278;22.550;2023-07-30T04:10:57;6.25;5.00;3.50
72854;PMS7003;60991;51.278;22.550;2023-07-30T04:12:27;5.00;5.00;3.50
72854;PMS7003;60991;51.278;22.550;2023-07-30T04:13:57;6.50;4.00;2.75
72854;PMS7003;60991;51.278;22.550;2023-07-30T04:15:27;4.25;4.25;2.50
72854;PMS7003;60991;51.278;22.550;2023-07-30T04:16:57;6.00;5.75;3.75
72854;PMS7003;60991;51.278;22.550;2023-07-30T04:18:28;6.00;6.00;4.00
72854;PMS7003;60991;51.278;22.550;2023-07-30T04:19:58;4.50;4.50;4.00
72854;PMS7003;60991;51.278;22.550;2023-07-30T04:21:28;7.00;7.00;5.00
72854;PMS7003;60991;51.278;22.550;2023-07-30T04:22:58;5.75;5.25;5.00
72854;PMS7003;60991;51.278;22.550;2023-07-30T04:24:28;4.50;3.25;3.00
72854;PMS7003;60991;51.278;22.550;2023-07-30T04:25:59;3.25;3.00;2.50
72854;PMS7003;60991;51.278;22.550;2023-07-30T04:27:29;3.50;3.50;3.00
72854;PMS7003;60991;51.278;22.550;2023-07-30T04:28:59;6.00;5.25;3.75
72854;PMS7003;60991;51.278;22.550;2023-07-30T04:30:29;5.00;4.75;3.75
72854;PMS7003;60991;51.278;22.550;2023-07-30T04:32:00;4.75;4.75;3.25
72854;PMS7003;60991;51.278;22.550;2023-07-30T04:33:30;5.00;3.50;2.50
72854;PMS7003;60991;51.278;22.550;2023-07-30T04:35:01;3.00;3.00;2.75
72854;PMS7003;60991;51.278;22.550;2023-07-30T04:36:31;5.00;3.00;2.50
72854;PMS7003;60991;51.278;22.550;2023-07-30T04:38:02;4.00;3.00;2.75
72854;PMS7003;60991;51.278;22.550;2023-07-30T04:39:32;3.75;3.75;3.00
72854;PMS7003;60991;51.278;22.550;2023-07-30T04:41:02;5.00;4.75;4.00
72854;PMS7003;60991;51.278;22.550;2023-07-30T04:42:33;6.25;4.25;3.00
72854;PMS7003;60991;51.278;22.550;2023-07-30T04:44:03;3.75;2.75;2.75
72854;PMS7003;60991;51.278;22.550;2023-07-30T04:45:33;3.25;3.25;2.50
72854;PMS7003;60991;51.278;22.550;2023-07-30T04:47:03;5.00;4.25;2.50
72854;PMS7003;60991;51.278;22.550;2023-07-30T04:48:34;5.25;5.00;4.00
72854;PMS7003;60991;51.278;22.550;2023-07-30T04:50:04;3.00;3.00;2.75
72854;PMS7003;60991;51.278;22.550;2023-07-30T04:51:35;6.75;6.00;4.00
72854;PMS7003;60991;51.278;22.550;2023-07-30T04:53:05;3.50;2.75;2.00
72854;PMS7003;60991;51.278;22.550;2023-07-30T04:54:35;6.00;4.75;3.00
72854;PMS7003;60991;51.278;22.550;2023-07-30T04:56:05;3.00;3.00;3.00
72854;PMS7003;60991;51.278;22.550;2023-07-30T04:57:35;3.75;3.75;2.50
72854;PMS7003;60991;51.278;22.550;2023-07-30T04:59:06;5.25;3.25;2.00
72854;PMS7003;60991;51.278;22.550;2023-07-30T05:00:36;4.50;4.00;3.00
72854;PMS7003;60991;51.278;22.550;2023-07-30T05:02:06;3.75;3.75;2.25
72854;PMS7003;60991;51.278;22.550;2023-07-30T05:03:36;2.75;2.75;2.75
72854;PMS7003;60991;51.278;22.550;2023-07-30T05:05:06;7.75;4.75;2.75
72854;PMS7003;60991;51.278;22.550;2023-07-30T05:06:37;4.25;4.25;3.50
72854;PMS7003;60991;51.278;22.550;2023-07-30T05:08:07;3.00;3.00;2.25
72854;PMS7003;60991;51.278;22.550;2023-07-30T05:09:38;3.75;3.75;3.75
72854;PMS7003;60991;51.278;22.550;2023-07-30T05:11:08;3.75;3.75;2.75
72854;PMS7003;60991;51.278;22.550;2023-07-30T05:12:38;3.75;3.75;2.75
72854;PMS7003;60991;51.278;22.550;2023-07-30T05:14:08;4.25;3.75;2.75
72854;PMS7003;60991;51.278;22.550;2023-07-30T05:15:38;4.25;4.25;3.25
72854;PMS7003;60991;51.278;22.550;2023-07-30T05:17:09;3.50;3.50;2.25
72854;PMS7003;60991;51.278;22.550;2023-07-30T05:18:39;4.00;4.00;3.00
72854;PMS7003;60991;51.278;22.550;2023-07-30T05:20:09;6.25;4.50;3.75
72854;PMS7003;60991;51.278;22.550;2023-07-30T05:21:40;5.75;4.75;3.50
72854;PMS7003;60991;51.278;22.550;2023-07-30T05:23:10;2.75;2.75;2.75
72854;PMS7003;60991;51.278;22.550;2023-07-30T05:24:40;3.50;3.50;2.75
72854;PMS7003;60991;51.278;22.550;2023-07-30T05:26:10;4.00;4.00;3.00
72854;PMS7003;60991;51.278;22.550;2023-07-30T05:27:41;4.50;4.50;3.75
72854;PMS7003;60991;51.278;22.550;2023-07-30T05:29:11;4.50;3.00;2.75
72854;PMS7003;60991;51.278;22.550;2023-07-30T05:30:41;4.50;4.50;3.00
72854;PMS7003;60991;51.278;22.550;2023-07-30T05:32:11;2.75;2.75;2.25
72854;PMS7003;60991;51.278;22.550;2023-07-30T05:33:41;5.50;4.25;2.75
72854;PMS7003;60991;51.278;22.550;2023-07-30T05:35:12;4.25;3.50;2.50
72854;PMS7003;60991;51.278;22.550;2023-07-30T05:36:42;3.00;3.00;2.00
72854;PMS7003;60991;51.278;22.550;2023-07-30T05:38:12;3.50;3.50;3.00
72854;PMS7003;60991;51.278;22.550;2023-07-30T05:39:42;5.75;4.00;3.75
72854;PMS7003;60991;51.278;22.550;2023-07-30T05:41:13;4.75;4.75;3.75
72854;PMS7003;60991;51.278;22.550;2023-07-30T05:42:43;6.50;6.50;4.25
72854;PMS7003;60991;51.278;22.550;2023-07-30T05:44:13;6.50;5.75;3.00
72854;PMS7003;60991;51.278;22.550;2023-07-30T05:45:43;4.00;4.00;3.00
72854;PMS7003;60991;51.278;22.550;2023-07-30T05:47:13;7.75;6.75;5.25
72854;PMS7003;60991;51.278;22.550;2023-07-30T05:48:44;7.75;7.75;6.00
72854;PMS7003;60991;51.278;22.550;2023-07-30T05:50:14;6.50;6.50;5.00
72854;PMS7003;60991;51.278;22.550;2023-07-30T05:51:44;8.25;7.25;5.25
72854;PMS7003;60991;51.278;22.550;2023-07-30T05:53:14;8.00;7.75;6.25
72854;PMS7003;60991;51.278;22.550;2023-07-30T05:54:45;9.00;9.00;7.00
72854;PMS7003;60991;51.278;22.550;2023-07-30T05:56:15;7.75;7.75;5.50
72854;PMS7003;60991;51.278;22.550;2023-07-30T05:57:45;7.75;7.75;6.00
72854;PMS7003;60991;51.278;22.550;2023-07-30T05:59:15;9.00;8.25;6.50
72854;PMS7003;60991;51.278;22.550;2023-07-30T06:00:45;7.50;7.50;5.25
72854;PMS7003;60991;51.278;22.550;2023-07-30T06:02:16;9.00;9.00;6.25
72854;PMS7003;60991;51.278;22.550;2023-07-30T06:03:46;9.50;8.00;6.50
72854;PMS7003;60991;51.278;22.550;2023-07-30T06:05:16;12.00;10.00;6.75
72854;PMS7003;60991;51.278;22.550;2023-07-30T06:06:46;8.75;7.00;5.50
72854;PMS7003;60991;51.278;22.550;2023-07-30T06:08:16;7.50;7.50;6.25
72854;PMS7003;60991;51.278;22.550;2023-07-30T06:09:47;11.50;10.50;8.00
72854;PMS7003;60991;51.278;22.550;2023-07-30T06:11:17;11.25;11.25;8.75
72854;PMS7003;60991;51.278;22.550;2023-07-30T06:12:47;11.00;8.75;6.50
72854;PMS7003;60991;51.278;22.550;2023-07-30T06:14:17;9.25;9.25;7.50
72854;PMS7003;60991;51.278;22.550;2023-07-30T06:15:47;11.00;11.00;8.00
72854;PMS7003;60991;51.278;22.550;2023-07-30T06:17:18;11.75;11.75;8.25
72854;PMS7003;60991;51.278;22.550;2023-07-30T06:18:48;12.50;12.50;7.50
72854;PMS7003;60991;51.278;22.550;2023-07-30T06:20:18;14.50;12.00;8.50
72854;PMS7003;60991;51.278;22.550;2023-07-30T06:21:48;12.50;12.50;9.25
72854;PMS7003;60991;51.278;22.550;2023-07-30T06:23:18;15.50;13.00;8.25
72854;PMS7003;60991;51.278;22.550;2023-07-30T06:24:49;12.75;12.50;8.50
72854;PMS7003;60991;51.278;22.550;2023-07-30T06:26:19;15.00;13.75;9.75
72854;PMS7003;60991;51.278;22.550;2023-07-30T06:27:49;13.75;13.00;9.75
72854;PMS7003;60991;51.278;22.550;2023-07-30T06:29:19;15.00;14.75;8.75
72854;PMS7003;60991;51.278;22.550;2023-07-30T06:30:50;12.50;11.75;9.75
72854;PMS7003;60991;51.278;22.550;2023-07-30T06:32:20;15.00;13.50;8.00
72854;PMS7003;60991;51.278;22.550;2023-07-30T06:33:50;12.50;12.50;9.25
72854;PMS7003;60991;51.278;22.550;2023-07-30T06:35:21;13.75;13.75;10.25
72854;PMS7003;60991;51.278;22.550;2023-07-30T06:36:51;15.50;12.00;8.25
72854;PMS7003;60991;51.278;22.550;2023-07-30T06:38:21;17.50;15.50;9.00
72854;PMS7003;60991;51.278;22.550;2023-07-30T06:39:51;14.25;14.25;10.25
72854;PMS7003;60991;51.278;22.550;2023-07-30T06:41:22;14.75;14.75;10.00
72854;PMS7003;60991;51.278;22.550;2023-07-30T06:42:52;16.75;15.50;10.75
72854;PMS7003;60991;51.278;22.550;2023-07-30T06:44:22;18.00;16.00;11.00
72854;PMS7003;60991;51.278;22.550;2023-07-30T06:45:53;18.50;16.75;11.25
72854;PMS7003;60991;51.278;22.550;2023-07-30T06:47:23;16.50;16.50;11.00
72854;PMS7003;60991;51.278;22.550;2023-07-30T06:48:54;17.25;15.75;10.00
72854;PMS7003;60991;51.278;22.550;2023-07-30T06:50:24;17.25;14.00;10.00
72854;PMS7003;60991;51.278;22.550;2023-07-30T06:51:54;15.00;15.00;10.50
72854;PMS7003;60991;51.278;22.550;2023-07-30T06:53:24;17.50;16.75;10.75
72854;PMS7003;60991;51.278;22.550;2023-07-30T06:54:54;14.00;14.00;10.00
72854;PMS7003;60991;51.278;22.550;2023-07-30T06:56:25;13.75;13.00;8.75
72854;PMS7003;60991;51.278;22.550;2023-07-30T06:57:55;12.00;10.50;8.25
72854;PMS7003;60991;51.278;22.550;2023-07-30T06:59:25;11.50;11.50;8.00
72854;PMS7003;60991;51.278;22.550;2023-07-30T07:00:55;11.50;11.50;7.75
72854;PMS7003;60991;51.278;22.550;2023-07-30T07:02:26;9.25;8.25;6.00
72854;PMS7003;60991;51.278;22.550;2023-07-30T07:03:56;5.75;5.75;4.75
72854;PMS7003;60991;51.278;22.550;2023-07-30T07:05:26;7.00;6.75;5.00
72854;PMS7003;60991;51.278;22.550;2023-07-30T07:06:56;6.50;6.25;3.75
72854;PMS7003;60991;51.278;22.550;2023-07-30T07:08:27;4.00;4.00;2.50
72854;PMS7003;60991;51.278;22.550;2023-07-30T07:09:57;6.25;5.00;3.50
72854;PMS7003;60991;51.278;22.550;2023-07-30T07:11:27;4.50;4.50;2.75
72854;PMS7003;60991;51.278;22.550;2023-07-30T07:12:57;4.50;4.50;3.00
72854;PMS7003;60991;51.278;22.550;2023-07-30T07:14:27;5.75;4.75;3.00
72854;PMS7003;60991;51.278;22.550;2023-07-30T07:15:57;5.75;5.50;3.75
72854;PMS7003;60991;51.278;22.550;2023-07-30T07:17:28;6.25;5.50;3.75
72854;PMS7003;60991;51.278;22.550;2023-07-30T07:18:58;6.25;6.25;4.75
72854;PMS7003;60991;51.278;22.550;2023-07-30T07:20:28;6.00;6.00;4.00
72854;PMS7003;60991;51.278;22.550;2023-07-30T07:21:58;6.00;6.00;4.75
72854;PMS7003;60991;51.278;22.550;2023-07-30T07:23:29;3.75;3.75;2.75
72854;PMS7003;60991;51.278;22.550;2023-07-30T07:24:59;4.50;4.50;3.00
72854;PMS7003;60991;51.278;22.550;2023-07-30T07:26:29;2.50;2.50;1.75
72854;PMS7003;60991;51.278;22.550;2023-07-30T07:27:59;4.00;4.00;3.50
72854;PMS7003;60991;51.278;22.550;2023-07-30T07:29:29;5.00;3.00;2.00
72854;PMS7003;60991;51.278;22.550;2023-07-30T07:31:00;6.00;6.00;4.00
72854;PMS7003;60991;51.278;22.550;2023-07-30T07:32:30;3.75;3.75;3.75
72854;PMS7003;60991;51.278;22.550;2023-07-30T07:34:00;5.50;2.75;2.00
72854;PMS7003;60991;51.278;22.550;2023-07-30T07:35:30;4.75;4.75;4.00
72854;PMS7003;60991;51.278;22.550;2023-07-30T07:37:01;4.50;2.00;1.75
72854;PMS7003;60991;51.278;22.550;2023-07-30T07:38:32;4.00;3.75;2.75
72854;PMS7003;60991;51.278;22.550;2023-07-30T07:40:03;6.25;4.50;3.25
72854;PMS7003;60991;51.278;22.550;2023-07-30T07:41:34;2.25;2.25;2.00
72854;PMS7003;60991;51.278;22.550;2023-07-30T07:43:04;4.00;3.75;3.00
72854;PMS7003;60991;51.278;22.550;2023-07-30T07:44:35;4.75;4.00;3.75
72854;PMS7003;60991;51.278;22.550;2023-07-30T07:46:05;5.25;4.00;3.00
72854;PMS7003;60991;51.278;22.550;2023-07-30T07:47:36;5.50;3.75;2.75
72854;PMS7003;60991;51.278;22.550;2023-07-30T07:49:06;4.00;4.00;3.25
72854;PMS7003;60991;51.278;22.550;2023-07-30T07:50:36;2.75;2.75;2.50
72854;PMS7003;60991;51.278;22.550;2023-07-30T07:52:06;3.00;3.00;2.00
72854;PMS7003;60991;51.278;22.550;2023-07-30T07:53:37;4.75;4.75;3.50
72854;PMS7003;60991;51.278;22.550;2023-07-30T07:55:08;3.75;3.00;2.50
72854;PMS7003;60991;51.278;22.550;2023-07-30T07:56:38;4.50;4.50;3.00
72854;PMS7003;60991;51.278;22.550;2023-07-30T07:58:08;4.75;4.50;3.75
72854;PMS7003;60991;51.278;22.550;2023-07-30T07:59:38;5.50;4.25;3.25
72854;PMS7003;60991;51.278;22.550;2023-07-30T08:01:09;6.75;6.75;5.75
72854;PMS7003;60991;51.278;22.550;2023-07-30T08:02:39;5.50;5.00;3.75
72854;PMS7003;60991;51.278;22.550;2023-07-30T08:04:09;5.00;5.00;4.00
72854;PMS7003;60991;51.278;22.550;2023-07-30T08:05:39;5.50;3.75;3.25
72854;PMS7003;60991;51.278;22.550;2023-07-30T08:07:09;4.00;4.00;3.00
72854;PMS7003;60991;51.278;22.550;2023-07-30T08:08:40;4.00;4.00;3.75
72854;PMS7003;60991;51.278;22.550;2023-07-30T08:10:10;3.75;3.75;3.00
72854;PMS7003;60991;51.278;22.550;2023-07-30T08:11:40;5.00;5.00;4.00
72854;PMS7003;60991;51.278;22.550;2023-07-30T08:13:10;5.50;4.75;2.75
72854;PMS7003;60991;51.278;22.550;2023-07-30T08:14:40;5.50;3.75;2.75
72854;PMS7003;60991;51.278;22.550;2023-07-30T08:16:11;4.25;3.50;3.00
72854;PMS7003;60991;51.278;22.550;2023-07-30T08:17:41;7.50;4.50;2.75
72854;PMS7003;60991;51.278;22.550;2023-07-30T08:19:12;5.00;5.00;3.00
72854;PMS7003;60991;51.278;22.550;2023-07-30T08:20:42;4.00;3.50;3.00
72854;PMS7003;60991;51.278;22.550;2023-07-30T08:22:12;5.75;4.25;3.25
72854;PMS7003;60991;51.278;22.550;2023-07-30T08:23:42;4.00;4.00;2.75
72854;PMS7003;60991;51.278;22.550;2023-07-30T08:25:13;5.50;3.25;3.00
72854;PMS7003;60991;51.278;22.550;2023-07-30T08:26:43;5.00;4.25;3.25
72854;PMS7003;60991;51.278;22.550;2023-07-30T08:28:13;5.25;5.25;4.00
72854;PMS7003;60991;51.278;22.550;2023-07-30T08:29:43;7.00;5.00;3.75
72854;PMS7003;60991;51.278;22.550;2023-07-30T08:31:14;4.00;3.00;2.00
72854;PMS7003;60991;51.278;22.550;2023-07-30T08:32:44;4.25;3.50;3.25
72854;PMS7003;60991;51.278;22.550;2023-07-30T08:34:14;4.00;4.00;3.00
72854;PMS7003;60991;51.278;22.550;2023-07-30T08:35:44;3.75;3.75;2.75
72854;PMS7003;60991;51.278;22.550;2023-07-30T08:37:14;5.00;4.25;3.75